Dupage Airport
KDPA : now visible

Airfield :











YOU CAN JOIN US ON...

 
LOGIN :

Register | Disclaimer

   EN    FR    IT 

 









Legend :    VFR   Marginal VFR   IFR   Intensive IFR   Very Intensive IFR
Visi :
Ceiling :
>= 8 km
>= 3000ft
5 to 8 km
1000 to 3000 ft
1500m to 5 km
500 to 1000 ft
800 to 1500m
200 to 500 ft
< 800m
< 200 ft
Symbols :   Thunderstorms  Fog  Heavy snow  Heavy precipitations  Wind > 20 kt







- Airport Elevation : 759 ft


KDPA - Dupage

CURRENT METAR :
  • 212101Z 16009KT 9SM SCT024 BKN043 OVC110 24/21 A3002 RMK AO2 T02390211

EXPIRED METARs :
  • 212052Z 17010KT 10SM BKN024 BKN039 OVC110 23/21 A3003 RMK AO2 RAE46 SLP163 P0009 60009 T02330211 56008
  • 212040Z 18009KT 2SM -RA BR SCT024 BKN039 OVC085 23/21 A3003 RMK AO2 P0009 T02330211
  • 212032Z 18012KT 1 3/4SM +RA SCT022 BKN027 OVC050 23/21 A3004 RMK AO2 P0009 T02330206
  • 212016Z 19014G25KT 7SM -RA OVC023 24/20 A3004 RMK AO2 P0001 T02440200
  • 211956Z 19011G19KT 9SM VCTS -RA BKN023 BKN037 OVC045 25/21 A3004 RMK AO2 P0000 T02500206
  • 211933Z 19011KT 10SM SCT026 OVC035 26/20 A3004 RMK AO2 T02560200
  • 211917Z 18012G22KT 10SM BKN026 BKN037 OVC046 25/20 A3005 RMK AO2 T02500200
  • 211852Z 19012G21KT 10SM BKN038 OVC070 26/21 A3005 RMK AO2 LTG DSNT N AND NE RAB24E46 SLP170 P0000 T02610206

TAF KDPA
Valid from the 21 at 18:00 until the 22 at 18:00 UTC


211728Z 2118/2218 22015G25KT P6SM VCSH SCT025 OVC050
FM212200 21015G25KT 5SM -SHRA BR VCTS SCT025 OVC040CB
TEMPO 2122/2201 3SM SHRA BR BKN025
FM220200 20012G22KT P6SM VCSH SCT020 BKN035
FM220800 19012G20KT 4SM SHRA BR VCTS BKN025 OVC040CB
PROB30 2209/2214 2SM +TSRA BR BKN008 OVC015CB
FM221500 22014G24KT 5SM SHRA BR BKN020 OVC035
No reported NOTAMs for that airfield.



MET'MAP, your aeronautical weather chart ! - Copyright ORBIFLY December 2007 - Disclaimer

ORBIFLY MET'MAP TEAM :

Programming & Development : Alexandra Zaïnal
Concept & Development : Baudouin d'Aumeries
Co-Development & Prog : Marc-Olivier Méhu
Technical & hardware support : Manuel Goepfert

Contact : metmap@orbifly.com




SOURCES & CREDITS :

   NOAA       Earth
Advisory